sensor_id;sensor_type;location;lat;lon;timestamp;P1;durP1;ratioP1;P2;durP2;ratioP2
51800;SDS011;37855;53.204;6.568;2023-02-23T00:02:04;44.92;;;21.13;;
51800;SDS011;37855;53.204;6.568;2023-02-23T00:04:33;50.30;;;21.88;;
51800;SDS011;37855;53.204;6.568;2023-02-23T00:06:59;46.25;;;22.95;;
51800;SDS011;37855;53.204;6.568;2023-02-23T00:09:25;51.30;;;22.87;;
51800;SDS011;37855;53.204;6.568;2023-02-23T00:11:59;46.88;;;21.58;;
51800;SDS011;37855;53.204;6.568;2023-02-23T00:14:32;50.63;;;21.35;;
51800;SDS011;37855;53.204;6.568;2023-02-23T00:17:02;45.47;;;22.50;;
51800;SDS011;37855;53.204;6.568;2023-02-23T00:19:29;46.95;;;22.60;;
51800;SDS011;37855;53.204;6.568;2023-02-23T00:21:57;51.05;;;22.67;;
51800;SDS011;37855;53.204;6.568;2023-02-23T00:24:23;46.63;;;22.40;;
51800;SDS011;37855;53.204;6.568;2023-02-23T00:26:51;49.30;;;22.92;;
51800;SDS011;37855;53.204;6.568;2023-02-23T00:29:18;52.75;;;24.00;;
51800;SDS011;37855;53.204;6.568;2023-02-23T00:31:46;49.53;;;22.15;;
51800;SDS011;37855;53.204;6.568;2023-02-23T00:34:14;49.60;;;22.70;;
51800;SDS011;37855;53.204;6.568;2023-02-23T00:36:41;52.87;;;23.77;;
51800;SDS011;37855;53.204;6.568;2023-02-23T00:39:10;52.53;;;24.80;;
51800;SDS011;37855;53.204;6.568;2023-02-23T00:41:45;50.33;;;23.40;;
51800;SDS011;37855;53.204;6.568;2023-02-23T00:44:14;51.95;;;23.52;;
51800;SDS011;37855;53.204;6.568;2023-02-23T00:46:40;57.22;;;24.83;;
51800;SDS011;37855;53.204;6.568;2023-02-23T00:49:13;58.73;;;25.43;;
51800;SDS011;37855;53.204;6.568;2023-02-23T00:51:40;59.58;;;25.80;;
51800;SDS011;37855;53.204;6.568;2023-02-23T00:54:06;57.83;;;25.65;;
51800;SDS011;37855;53.204;6.568;2023-02-23T00:56:43;62.50;;;26.42;;
51800;SDS011;37855;53.204;6.568;2023-02-23T00:59:09;64.40;;;27.52;;
51800;SDS011;37855;53.204;6.568;2023-02-23T01:01:36;57.73;;;26.30;;
51800;SDS011;37855;53.204;6.568;2023-02-23T01:04:03;62.65;;;26.88;;
51800;SDS011;37855;53.204;6.568;2023-02-23T01:06:31;65.93;;;26.45;;
51800;SDS011;37855;53.204;6.568;2023-02-23T01:08:56;66.03;;;27.13;;
51800;SDS011;37855;53.204;6.568;2023-02-23T01:11:24;64.45;;;27.80;;
51800;SDS011;37855;53.204;6.568;2023-02-23T01:13:52;66.72;;;27.75;;
51800;SDS011;37855;53.204;6.568;2023-02-23T01:16:21;62.65;;;27.75;;
51800;SDS011;37855;53.204;6.568;2023-02-23T01:18:52;65.80;;;28.83;;
51800;SDS011;37855;53.204;6.568;2023-02-23T01:21:20;68.43;;;27.17;;
51800;SDS011;37855;53.204;6.568;2023-02-23T01:23:53;63.47;;;27.95;;
51800;SDS011;37855;53.204;6.568;2023-02-23T01:26:20;69.65;;;29.48;;
51800;SDS011;37855;53.204;6.568;2023-02-23T01:28:51;62.38;;;28.95;;
51800;SDS011;37855;53.204;6.568;2023-02-23T01:31:21;66.82;;;28.08;;
51800;SDS011;37855;53.204;6.568;2023-02-23T01:33:47;65.23;;;27.97;;
51800;SDS011;37855;53.204;6.568;2023-02-23T01:36:18;67.63;;;28.25;;
51800;SDS011;37855;53.204;6.568;2023-02-23T01:38:44;69.72;;;28.75;;
51800;SDS011;37855;53.204;6.568;2023-02-23T01:41:10;64.63;;;28.63;;
51800;SDS011;37855;53.204;6.568;2023-02-23T01:43:52;66.15;;;27.85;;
51800;SDS011;37855;53.204;6.568;2023-02-23T01:46:30;63.65;;;27.23;;
51800;SDS011;37855;53.204;6.568;2023-02-23T01:48:57;64.63;;;27.13;;
51800;SDS011;37855;53.204;6.568;2023-02-23T01:51:24;66.47;;;28.42;;
51800;SDS011;37855;53.204;6.568;2023-02-23T01:54:11;66.77;;;27.87;;
51800;SDS011;37855;53.204;6.568;2023-02-23T01:56:45;68.35;;;27.42;;
51800;SDS011;37855;53.204;6.568;2023-02-23T01:59:22;64.60;;;28.05;;
51800;SDS011;37855;53.204;6.568;2023-02-23T02:01:52;59.25;;;26.23;;
51800;SDS011;37855;53.204;6.568;2023-02-23T02:04:19;64.95;;;27.52;;
51800;SDS011;37855;53.204;6.568;2023-02-23T02:06:47;62.20;;;27.77;;
51800;SDS011;37855;53.204;6.568;2023-02-23T02:09:18;64.97;;;27.30;;
51800;SDS011;37855;53.204;6.568;2023-02-23T02:11:49;68.60;;;27.63;;
51800;SDS011;37855;53.204;6.568;2023-02-23T02:14:19;60.47;;;25.60;;
51800;SDS011;37855;53.204;6.568;2023-02-23T02:28:12;64.07;;;26.55;;
51800;SDS011;37855;53.204;6.568;2023-02-23T02:36:43;66.55;;;26.25;;
51800;SDS011;37855;53.204;6.568;2023-02-23T02:42:15;64.63;;;26.50;;
51800;SDS011;37855;53.204;6.568;2023-02-23T02:44:56;60.70;;;26.40;;
51800;SDS011;37855;53.204;6.568;2023-02-23T02:47:37;63.43;;;27.07;;
51800;SDS011;37855;53.204;6.568;2023-02-23T02:50:20;65.18;;;26.90;;
51800;SDS011;37855;53.204;6.568;2023-02-23T02:53:00;67.32;;;27.30;;
51800;SDS011;37855;53.204;6.568;2023-02-23T02:55:31;61.28;;;26.17;;
51800;SDS011;37855;53.204;6.568;2023-02-23T02:58:03;67.18;;;28.05;;
51800;SDS011;37855;53.204;6.568;2023-02-23T03:00:40;64.07;;;26.10;;
51800;SDS011;37855;53.204;6.568;2023-02-23T03:03:35;64.75;;;26.20;;
51800;SDS011;37855;53.204;6.568;2023-02-23T03:06:21;68.28;;;27.02;;
51800;SDS011;37855;53.204;6.568;2023-02-23T03:21:30;70.50;;;28.05;;
51800;SDS011;37855;53.204;6.568;2023-02-23T03:24:24;63.83;;;26.30;;
51800;SDS011;37855;53.204;6.568;2023-02-23T03:27:19;70.78;;;27.95;;
51800;SDS011;37855;53.204;6.568;2023-02-23T03:30:17;66.07;;;26.83;;
51800;SDS011;37855;53.204;6.568;2023-02-23T03:33:09;64.72;;;25.70;;
51800;SDS011;37855;53.204;6.568;2023-02-23T03:36:12;64.60;;;27.67;;
51800;SDS011;37855;53.204;6.568;2023-02-23T03:39:03;64.68;;;26.27;;
51800;SDS011;37855;53.204;6.568;2023-02-23T03:41:57;62.47;;;26.25;;
51800;SDS011;37855;53.204;6.568;2023-02-23T03:44:44;68.43;;;25.70;;
51800;SDS011;37855;53.204;6.568;2023-02-23T03:47:32;64.72;;;25.65;;
51800;SDS011;37855;53.204;6.568;2023-02-23T03:50:21;64.45;;;26.67;;
51800;SDS011;37855;53.204;6.568;2023-02-23T03:53:13;63.95;;;26.98;;
51800;SDS011;37855;53.204;6.568;2023-02-23T03:56:04;65.28;;;26.08;;
51800;SDS011;37855;53.204;6.568;2023-02-23T03:58:53;67.70;;;27.40;;
51800;SDS011;37855;53.204;6.568;2023-02-23T04:01:41;64.68;;;26.08;;
51800;SDS011;37855;53.204;6.568;2023-02-23T04:04:25;65.95;;;26.70;;
51800;SDS011;37855;53.204;6.568;2023-02-23T04:07:12;68.18;;;27.42;;
51800;SDS011;37855;53.204;6.568;2023-02-23T04:09:59;64.82;;;25.75;;
51800;SDS011;37855;53.204;6.568;2023-02-23T04:12:58;62.90;;;26.47;;
51800;SDS011;37855;53.204;6.568;2023-02-23T04:15:40;67.57;;;26.98;;
51800;SDS011;37855;53.204;6.568;2023-02-23T04:18:07;61.55;;;25.23;;
51800;SDS011;37855;53.204;6.568;2023-02-23T04:20:41;66.78;;;26.17;;
51800;SDS011;37855;53.204;6.568;2023-02-23T04:23:07;63.60;;;24.10;;
51800;SDS011;37855;53.204;6.568;2023-02-23T04:25:35;63.85;;;25.92;;
51800;SDS011;37855;53.204;6.568;2023-02-23T04:28:01;68.00;;;26.47;;
51800;SDS011;37855;53.204;6.568;2023-02-23T04:30:27;64.30;;;26.42;;
51800;SDS011;37855;53.204;6.568;2023-02-23T04:32:54;67.55;;;26.83;;
51800;SDS011;37855;53.204;6.568;2023-02-23T04:35:20;66.30;;;27.05;;
51800;SDS011;37855;53.204;6.568;2023-02-23T04:37:46;66.57;;;26.42;;
51800;SDS011;37855;53.204;6.568;2023-02-23T04:40:12;69.17;;;26.77;;
51800;SDS011;37855;53.204;6.568;2023-02-23T04:42:38;64.40;;;26.60;;
51800;SDS011;37855;53.204;6.568;2023-02-23T04:45:05;66.00;;;26.80;;
51800;SDS011;37855;53.204;6.568;2023-02-23T04:47:31;62.00;;;26.03;;
51800;SDS011;37855;53.204;6.568;2023-02-23T04:49:57;66.32;;;26.05;;
51800;SDS011;37855;53.204;6.568;2023-02-23T04:52:23;64.63;;;25.43;;
51800;SDS011;37855;53.204;6.568;2023-02-23T04:54:48;67.28;;;26.63;;
51800;SDS011;37855;53.204;6.568;2023-02-23T04:57:14;65.20;;;27.27;;
51800;SDS011;37855;53.204;6.568;2023-02-23T04:59:40;60.10;;;25.02;;
51800;SDS011;37855;53.204;6.568;2023-02-23T05:02:06;62.47;;;24.17;;
51800;SDS011;37855;53.204;6.568;2023-02-23T05:04:32;57.95;;;23.88;;
51800;SDS011;37855;53.204;6.568;2023-02-23T05:07:03;61.67;;;25.10;;
51800;SDS011;37855;53.204;6.568;2023-02-23T05:09:30;59.25;;;23.75;;
51800;SDS011;37855;53.204;6.568;2023-02-23T05:11:55;55.92;;;23.70;;
51800;SDS011;37855;53.204;6.568;2023-02-23T05:14:21;55.80;;;24.70;;
51800;SDS011;37855;53.204;6.568;2023-02-23T05:16:47;58.25;;;22.85;;
51800;SDS011;37855;53.204;6.568;2023-02-23T05:19:18;56.63;;;24.45;;
51800;SDS011;37855;53.204;6.568;2023-02-23T05:21:44;57.43;;;23.27;;
51800;SDS011;37855;53.204;6.568;2023-02-23T05:24:12;57.97;;;23.58;;
51800;SDS011;37855;53.204;6.568;2023-02-23T05:26:39;51.78;;;22.02;;
51800;SDS011;37855;53.204;6.568;2023-02-23T05:29:04;57.13;;;23.43;;
51800;SDS011;37855;53.204;6.568;2023-02-23T05:31:36;57.08;;;22.30;;
51800;SDS011;37855;53.204;6.568;2023-02-23T05:34:02;50.80;;;21.25;;
51800;SDS011;37855;53.204;6.568;2023-02-23T05:36:29;48.23;;;20.73;;
51800;SDS011;37855;53.204;6.568;2023-02-23T05:38:54;44.55;;;19.30;;
51800;SDS011;37855;53.204;6.568;2023-02-23T05:41:21;45.33;;;18.47;;
51800;SDS011;37855;53.204;6.568;2023-02-23T05:43:48;39.55;;;18.70;;
51800;SDS011;37855;53.204;6.568;2023-02-23T05:46:20;38.47;;;17.52;;
51800;SDS011;37855;53.204;6.568;2023-02-23T05:48:59;35.22;;;16.20;;
51800;SDS011;37855;53.204;6.568;2023-02-23T05:51:25;33.40;;;15.70;;
51800;SDS011;37855;53.204;6.568;2023-02-23T05:53:53;35.87;;;16.20;;
51800;SDS011;37855;53.204;6.568;2023-02-23T05:56:19;36.22;;;15.50;;
51800;SDS011;37855;53.204;6.568;2023-02-23T05:58:48;33.40;;;15.07;;
51800;SDS011;37855;53.204;6.568;2023-02-23T06:01:16;29.48;;;14.65;;
51800;SDS011;37855;53.204;6.568;2023-02-23T06:03:43;35.67;;;15.50;;
51800;SDS011;37855;53.204;6.568;2023-02-23T06:06:12;30.92;;;14.38;;
51800;SDS011;37855;53.204;6.568;2023-02-23T06:08:38;36.13;;;14.85;;
51800;SDS011;37855;53.204;6.568;2023-02-23T06:11:09;34.67;;;15.80;;
51800;SDS011;37855;53.204;6.568;2023-02-23T06:13:35;35.95;;;15.60;;
51800;SDS011;37855;53.204;6.568;2023-02-23T06:16:04;32.10;;;14.70;;
51800;SDS011;37855;53.204;6.568;2023-02-23T06:18:30;32.70;;;14.55;;
51800;SDS011;37855;53.204;6.568;2023-02-23T06:20:57;32.08;;;14.75;;
51800;SDS011;37855;53.204;6.568;2023-02-23T06:23:27;29.60;;;14.52;;
51800;SDS011;37855;53.204;6.568;2023-02-23T06:25:57;31.67;;;14.47;;
51800;SDS011;37855;53.204;6.568;2023-02-23T06:28:26;33.10;;;14.85;;
51800;SDS011;37855;53.204;6.568;2023-02-23T06:30:52;31.90;;;14.52;;
51800;SDS011;37855;53.204;6.568;2023-02-23T06:33:20;31.35;;;15.60;;
51800;SDS011;37855;53.204;6.568;2023-02-23T06:35:47;31.55;;;15.50;;
51800;SDS011;37855;53.204;6.568;2023-02-23T06:38:16;31.03;;;14.40;;
51800;SDS011;37855;53.204;6.568;2023-02-23T06:40:42;34.47;;;16.63;;
51800;SDS011;37855;53.204;6.568;2023-02-23T06:43:10;28.75;;;14.65;;
51800;SDS011;37855;53.204;6.568;2023-02-23T06:45:36;33.70;;;15.97;;
51800;SDS011;37855;53.204;6.568;2023-02-23T06:48:02;36.88;;;17.13;;
51800;SDS011;37855;53.204;6.568;2023-02-23T06:50:28;33.67;;;15.45;;
51800;SDS011;37855;53.204;6.568;2023-02-23T06:52:54;35.43;;;15.37;;
51800;SDS011;37855;53.204;6.568;2023-02-23T06:55:24;35.25;;;15.23;;
51800;SDS011;37855;53.204;6.568;2023-02-23T06:57:50;31.53;;;16.10;;
51800;SDS011;37855;53.204;6.568;2023-02-23T07:00:18;33.72;;;16.02;;
51800;SDS011;37855;53.204;6.568;2023-02-23T07:02:44;31.63;;;15.43;;
51800;SDS011;37855;53.204;6.568;2023-02-23T07:05:10;30.55;;;14.93;;
51800;SDS011;37855;53.204;6.568;2023-02-23T07:07:36;30.73;;;14.57;;
51800;SDS011;37855;53.204;6.568;2023-02-23T07:10:02;34.13;;;15.85;;
51800;SDS011;37855;53.204;6.568;2023-02-23T07:12:29;30.92;;;15.68;;
51800;SDS011;37855;53.204;6.568;2023-02-23T07:14:57;33.80;;;15.50;;
51800;SDS011;37855;53.204;6.568;2023-02-23T07:17:23;31.63;;;15.43;;
51800;SDS011;37855;53.204;6.568;2023-02-23T07:19:49;28.70;;;14.00;;
51800;SDS011;37855;53.204;6.568;2023-02-23T07:22:14;29.88;;;14.32;;
51800;SDS011;37855;53.204;6.568;2023-02-23T07:24:40;30.50;;;14.67;;
51800;SDS011;37855;53.204;6.568;2023-02-23T07:27:12;31.75;;;15.25;;
51800;SDS011;37855;53.204;6.568;2023-02-23T07:29:40;29.85;;;14.00;;
51800;SDS011;37855;53.204;6.568;2023-02-23T07:34:55;31.60;;;15.13;;
51800;SDS011;37855;53.204;6.568;2023-02-23T07:40:14;28.17;;;14.32;;
51800;SDS011;37855;53.204;6.568;2023-02-23T07:43:25;30.58;;;14.75;;
51800;SDS011;37855;53.204;6.568;2023-02-23T07:45:54;30.80;;;15.10;;
51800;SDS011;37855;53.204;6.568;2023-02-23T07:48:22;31.60;;;15.50;;
51800;SDS011;37855;53.204;6.568;2023-02-23T07:50:48;33.67;;;15.00;;
51800;SDS011;37855;53.204;6.568;2023-02-23T07:53:14;33.37;;;14.53;;
51800;SDS011;37855;53.204;6.568;2023-02-23T07:55:40;27.85;;;14.88;;
51800;SDS011;37855;53.204;6.568;2023-02-23T07:58:06;27.98;;;14.25;;
51800;SDS011;37855;53.204;6.568;2023-02-23T08:00:33;30.73;;;14.80;;
51800;SDS011;37855;53.204;6.568;2023-02-23T08:03:02;32.13;;;15.03;;
51800;SDS011;37855;53.204;6.568;2023-02-23T08:05:29;33.85;;;14.48;;
51800;SDS011;37855;53.204;6.568;2023-02-23T08:07:56;32.58;;;15.40;;
51800;SDS011;37855;53.204;6.568;2023-02-23T08:10:22;28.80;;;13.43;;
51800;SDS011;37855;53.204;6.568;2023-02-23T08:12:48;28.98;;;14.13;;
51800;SDS011;37855;53.204;6.568;2023-02-23T08:15:14;30.17;;;14.70;;
51800;SDS011;37855;53.204;6.568;2023-02-23T08:17:42;29.15;;;14.85;;
51800;SDS011;37855;53.204;6.568;2023-02-23T08:20:08;29.90;;;14.23;;
51800;SDS011;37855;53.204;6.568;2023-02-23T08:22:34;31.02;;;14.43;;
51800;SDS011;37855;53.204;6.568;2023-02-23T08:25:00;31.77;;;14.83;;
51800;SDS011;37855;53.204;6.568;2023-02-23T08:27:27;29.60;;;14.52;;
51800;SDS011;37855;53.204;6.568;2023-02-23T08:29:56;29.25;;;14.68;;
51800;SDS011;37855;53.204;6.568;2023-02-23T08:32:21;30.45;;;14.32;;
51800;SDS011;37855;53.204;6.568;2023-02-23T08:34:49;29.13;;;13.80;;
51800;SDS011;37855;53.204;6.568;2023-02-23T08:37:14;35.20;;;14.65;;
51800;SDS011;37855;53.204;6.568;2023-02-23T08:43:05;31.30;;;13.83;;
51800;SDS011;37855;53.204;6.568;2023-02-23T08:46:16;31.02;;;14.25;;
51800;SDS011;37855;53.204;6.568;2023-02-23T08:48:44;32.30;;;14.93;;
51800;SDS011;37855;53.204;6.568;2023-02-23T08:51:11;33.42;;;15.25;;
51800;SDS011;37855;53.204;6.568;2023-02-23T08:53:38;33.35;;;15.18;;
51800;SDS011;37855;53.204;6.568;2023-02-23T08:56:05;33.43;;;14.80;;
51800;SDS011;37855;53.204;6.568;2023-02-23T08:58:31;33.33;;;14.50;;
51800;SDS011;37855;53.204;6.568;2023-02-23T09:00:58;30.27;;;14.43;;
51800;SDS011;37855;53.204;6.568;2023-02-23T09:03:25;29.92;;;14.18;;
51800;SDS011;37855;53.204;6.568;2023-02-23T09:05:53;31.65;;;14.57;;
51800;SDS011;37855;53.204;6.568;2023-02-23T09:08:19;29.77;;;13.97;;
51800;SDS011;37855;53.204;6.568;2023-02-23T09:10:45;30.63;;;14.45;;
51800;SDS011;37855;53.204;6.568;2023-02-23T09:13:10;34.65;;;15.45;;
51800;SDS011;37855;53.204;6.568;2023-02-23T09:15:37;31.67;;;14.95;;
51800;SDS011;37855;53.204;6.568;2023-02-23T09:18:05;32.10;;;14.83;;
51800;SDS011;37855;53.204;6.568;2023-02-23T09:20:31;32.85;;;15.02;;
51800;SDS011;37855;53.204;6.568;2023-02-23T09:23:03;32.60;;;15.32;;
51800;SDS011;37855;53.204;6.568;2023-02-23T09:25:29;45.83;;;17.10;;
51800;SDS011;37855;53.204;6.568;2023-02-23T09:27:55;33.60;;;14.63;;
51800;SDS011;37855;53.204;6.568;2023-02-23T09:30:24;34.20;;;14.70;;
51800;SDS011;37855;53.204;6.568;2023-02-23T09:32:51;31.55;;;13.85;;
51800;SDS011;37855;53.204;6.568;2023-02-23T09:35:19;31.77;;;14.13;;
51800;SDS011;37855;53.204;6.568;2023-02-23T09:37:51;33.47;;;15.23;;
51800;SDS011;37855;53.204;6.568;2023-02-23T09:40:25;33.83;;;15.55;;
51800;SDS011;37855;53.204;6.568;2023-02-23T09:43:02;33.70;;;14.40;;
51800;SDS011;37855;53.204;6.568;2023-02-23T09:48:55;30.63;;;14.02;;
51800;SDS011;37855;53.204;6.568;2023-02-23T09:51:24;36.70;;;15.38;;
51800;SDS011;37855;53.204;6.568;2023-02-23T09:53:52;34.75;;;15.15;;
51800;SDS011;37855;53.204;6.568;2023-02-23T09:56:26;35.03;;;14.97;;
51800;SDS011;37855;53.204;6.568;2023-02-23T09:58:59;39.10;;;15.60;;
51800;SDS011;37855;53.204;6.568;2023-02-23T10:04:25;39.95;;;15.90;;
51800;SDS011;37855;53.204;6.568;2023-02-23T10:15:43;53.58;;;19.58;;
51800;SDS011;37855;53.204;6.568;2023-02-23T10:21:14;62.88;;;21.58;;
51800;SDS011;37855;53.204;6.568;2023-02-23T10:23:53;55.97;;;20.37;;
51800;SDS011;37855;53.204;6.568;2023-02-23T10:26:21;60.78;;;20.40;;
51800;SDS011;37855;53.204;6.568;2023-02-23T10:28:55;60.00;;;22.17;;
51800;SDS011;37855;53.204;6.568;2023-02-23T10:33:56;59.22;;;20.27;;
51800;SDS011;37855;53.204;6.568;2023-02-23T10:36:32;63.27;;;21.30;;
51800;SDS011;37855;53.204;6.568;2023-02-23T10:39:04;57.97;;;19.45;;
51800;SDS011;37855;53.204;6.568;2023-02-23T10:41:31;63.78;;;20.63;;
51800;SDS011;37855;53.204;6.568;2023-02-23T10:43:58;58.58;;;19.27;;
51800;SDS011;37855;53.204;6.568;2023-02-23T10:46:24;58.33;;;18.27;;
51800;SDS011;37855;53.204;6.568;2023-02-23T10:48:55;63.85;;;18.67;;
51800;SDS011;37855;53.204;6.568;2023-02-23T10:51:25;56.08;;;17.80;;
51800;SDS011;37855;53.204;6.568;2023-02-23T10:53:57;62.35;;;19.83;;
51800;SDS011;37855;53.204;6.568;2023-02-23T10:56:23;66.72;;;18.20;;
51800;SDS011;37855;53.204;6.568;2023-02-23T10:58:59;61.47;;;17.70;;
51800;SDS011;37855;53.204;6.568;2023-02-23T11:01:35;53.80;;;15.23;;
51800;SDS011;37855;53.204;6.568;2023-02-23T11:06:40;53.70;;;14.80;;
51800;SDS011;37855;53.204;6.568;2023-02-23T11:09:26;56.95;;;15.32;;
51800;SDS011;37855;53.204;6.568;2023-02-23T11:12:00;50.27;;;14.37;;
51800;SDS011;37855;53.204;6.568;2023-02-23T11:14:29;53.50;;;15.02;;
51800;SDS011;37855;53.204;6.568;2023-02-23T11:20:04;52.38;;;14.77;;
51800;SDS011;37855;53.204;6.568;2023-02-23T11:22:47;51.00;;;14.73;;
51800;SDS011;37855;53.204;6.568;2023-02-23T11:25:46;55.23;;;15.70;;
51800;SDS011;37855;53.204;6.568;2023-02-23T11:28:13;55.83;;;14.88;;
51800;SDS011;37855;53.204;6.568;2023-02-23T11:30:46;59.45;;;14.88;;
51800;SDS011;37855;53.204;6.568;2023-02-23T11:33:17;54.30;;;16.05;;
51800;SDS011;37855;53.204;6.568;2023-02-23T11:35:51;56.63;;;14.73;;
51800;SDS011;37855;53.204;6.568;2023-02-23T11:38:27;58.90;;;16.35;;
51800;SDS011;37855;53.204;6.568;2023-02-23T11:41:00;65.43;;;18.15;;
51800;SDS011;37855;53.204;6.568;2023-02-23T11:43:31;63.15;;;15.98;;
51800;SDS011;37855;53.204;6.568;2023-02-23T11:45:57;70.03;;;18.42;;
51800;SDS011;37855;53.204;6.568;2023-02-23T11:49:23;60.10;;;14.97;;
51800;SDS011;37855;53.204;6.568;2023-02-23T11:58:46;71.20;;;18.50;;
51800;SDS011;37855;53.204;6.568;2023-02-23T12:06:53;73.82;;;18.98;;
51800;SDS011;37855;53.204;6.568;2023-02-23T12:09:44;72.57;;;19.80;;
51800;SDS011;37855;53.204;6.568;2023-02-23T12:12:14;79.53;;;19.50;;
51800;SDS011;37855;53.204;6.568;2023-02-23T12:15:05;98.65;;;22.77;;
51800;SDS011;37855;53.204;6.568;2023-02-23T12:17:49;97.70;;;23.70;;
51800;SDS011;37855;53.204;6.568;2023-02-23T12:33:41;102.07;;;22.60;;
51800;SDS011;37855;53.204;6.568;2023-02-23T12:38:53;97.15;;;23.45;;
51800;SDS011;37855;53.204;6.568;2023-02-23T12:41:38;87.32;;;22.48;;
51800;SDS011;37855;53.204;6.568;2023-02-23T12:44:34;87.50;;;21.15;;
51800;SDS011;37855;53.204;6.568;2023-02-23T12:50:12;69.95;;;20.80;;
51800;SDS011;37855;53.204;6.568;2023-02-23T12:52:57;77.68;;;19.73;;
51800;SDS011;37855;53.204;6.568;2023-02-23T13:06:58;51.15;;;14.00;;
51800;SDS011;37855;53.204;6.568;2023-02-23T13:09:50;28.85;;;5.82;;
51800;SDS011;37855;53.204;6.568;2023-02-23T13:15:40;26.57;;;4.50;;
51800;SDS011;37855;53.204;6.568;2023-02-23T13:21:22;28.73;;;4.25;;
51800;SDS011;37855;53.204;6.568;2023-02-23T13:24:18;32.70;;;3.70;;
51800;SDS011;37855;53.204;6.568;2023-02-23T13:29:35;17.03;;;4.30;;
51800;SDS011;37855;53.204;6.568;2023-02-23T13:32:12;27.73;;;4.55;;
51800;SDS011;37855;53.204;6.568;2023-02-23T13:34:43;30.05;;;4.22;;
51800;SDS011;37855;53.204;6.568;2023-02-23T13:37:16;37.05;;;5.65;;
51800;SDS011;37855;53.204;6.568;2023-02-23T13:48:52;32.55;;;5.32;;
51800;SDS011;37855;53.204;6.568;2023-02-23T13:56:41;34.33;;;5.27;;
51800;SDS011;37855;53.204;6.568;2023-02-23T13:59:23;39.70;;;5.40;;
51800;SDS011;37855;53.204;6.568;2023-02-23T14:01:57;28.13;;;5.07;;
51800;SDS011;37855;53.204;6.568;2023-02-23T14:04:27;40.75;;;4.80;;
51800;SDS011;37855;53.204;6.568;2023-02-23T14:09:34;43.93;;;5.63;;
51800;SDS011;37855;53.204;6.568;2023-02-23T14:17:51;31.67;;;4.75;;
51800;SDS011;37855;53.204;6.568;2023-02-23T14:20:11;24.75;;;3.78;;
51800;SDS011;37855;53.204;6.568;2023-02-23T14:25:47;24.48;;;4.70;;
51800;SDS011;37855;53.204;6.568;2023-02-23T14:38:58;26.67;;;4.30;;
51800;SDS011;37855;53.204;6.568;2023-02-23T14:43:59;22.45;;;3.85;;
51800;SDS011;37855;53.204;6.568;2023-02-23T14:46:37;26.48;;;4.38;;
51800;SDS011;37855;53.204;6.568;2023-02-23T14:49:19;20.87;;;3.80;;
51800;SDS011;37855;53.204;6.568;2023-02-23T14:51:53;25.52;;;3.78;;
51800;SDS011;37855;53.204;6.568;2023-02-23T14:54:21;26.02;;;4.47;;
51800;SDS011;37855;53.204;6.568;2023-02-23T14:56:56;28.17;;;4.68;;
51800;SDS011;37855;53.204;6.568;2023-02-23T15:07:39;24.75;;;3.55;;
51800;SDS011;37855;53.204;6.568;2023-02-23T15:10:32;27.20;;;4.15;;
51800;SDS011;37855;53.204;6.568;2023-02-23T15:13:06;27.55;;;3.80;;
51800;SDS011;37855;53.204;6.568;2023-02-23T15:15:35;13.10;;;3.10;;
51800;SDS011;37855;53.204;6.568;2023-02-23T15:18:29;27.60;;;3.20;;
51800;SDS011;37855;53.204;6.568;2023-02-23T15:20:58;23.33;;;3.80;;
51800;SDS011;37855;53.204;6.568;2023-02-23T15:23:24;27.48;;;3.80;;
51800;SDS011;37855;53.204;6.568;2023-02-23T15:25:50;20.00;;;3.57;;
51800;SDS011;37855;53.204;6.568;2023-02-23T15:28:26;32.67;;;4.47;;
51800;SDS011;37855;53.204;6.568;2023-02-23T15:31:00;25.52;;;3.38;;
51800;SDS011;37855;53.204;6.568;2023-02-23T15:33:28;20.38;;;3.78;;
51800;SDS011;37855;53.204;6.568;2023-02-23T15:36:02;22.42;;;3.00;;
51800;SDS011;37855;53.204;6.568;2023-02-23T15:38:53;17.27;;;3.73;;
51800;SDS011;37855;53.204;6.568;2023-02-23T15:42:17;18.33;;;3.40;;
51800;SDS011;37855;53.204;6.568;2023-02-23T15:48:02;16.15;;;2.67;;
51800;SDS011;37855;53.204;6.568;2023-02-23T15:50:47;23.98;;;3.30;;
51800;SDS011;37855;53.204;6.568;2023-02-23T15:56:21;18.35;;;2.60;;
51800;SDS011;37855;53.204;6.568;2023-02-23T15:59:04;17.38;;;3.55;;
51800;SDS011;37855;53.204;6.568;2023-02-23T16:01:38;17.88;;;2.67;;
51800;SDS011;37855;53.204;6.568;2023-02-23T16:06:51;17.37;;;2.53;;
51800;SDS011;37855;53.204;6.568;2023-02-23T16:11:50;16.35;;;3.00;;
51800;SDS011;37855;53.204;6.568;2023-02-23T16:14:54;21.02;;;3.22;;
51800;SDS011;37855;53.204;6.568;2023-02-23T16:25:36;15.43;;;2.97;;
51800;SDS011;37855;53.204;6.568;2023-02-23T16:32:01;16.17;;;3.35;;
51800;SDS011;37855;53.204;6.568;2023-02-23T16:58:15;23.45;;;3.92;;
51800;SDS011;37855;53.204;6.568;2023-02-23T17:04:15;12.90;;;2.30;;
51800;SDS011;37855;53.204;6.568;2023-02-23T17:06:47;14.10;;;2.63;;
51800;SDS011;37855;53.204;6.568;2023-02-23T17:10:20;18.90;;;2.80;;
51800;SDS011;37855;53.204;6.568;2023-02-23T17:12:53;12.75;;;2.53;;
51800;SDS011;37855;53.204;6.568;2023-02-23T17:15:20;16.67;;;3.05;;
51800;SDS011;37855;53.204;6.568;2023-02-23T17:17:48;14.63;;;3.00;;
51800;SDS011;37855;53.204;6.568;2023-02-23T17:20:17;10.10;;;2.27;;
51800;SDS011;37855;53.204;6.568;2023-02-23T17:22:48;15.80;;;2.65;;
51800;SDS011;37855;53.204;6.568;2023-02-23T17:32:04;17.20;;;2.92;;
51800;SDS011;37855;53.204;6.568;2023-02-23T17:34:30;14.43;;;2.90;;
51800;SDS011;37855;53.204;6.568;2023-02-23T17:36:59;12.38;;;2.40;;
51800;SDS011;37855;53.204;6.568;2023-02-23T17:39:40;13.13;;;2.70;;
51800;SDS011;37855;53.204;6.568;2023-02-23T17:42:06;13.02;;;2.72;;
51800;SDS011;37855;53.204;6.568;2023-02-23T17:44:31;15.90;;;2.50;;
51800;SDS011;37855;53.204;6.568;2023-02-23T17:46:58;12.38;;;2.80;;
51800;SDS011;37855;53.204;6.568;2023-02-23T17:49:27;12.40;;;2.47;;
51800;SDS011;37855;53.204;6.568;2023-02-23T17:51:54;11.17;;;2.40;;
51800;SDS011;37855;53.204;6.568;2023-02-23T17:54:23;15.50;;;3.00;;
51800;SDS011;37855;53.204;6.568;2023-02-23T17:56:50;13.57;;;3.00;;
51800;SDS011;37855;53.204;6.568;2023-02-23T17:59:15;17.50;;;3.50;;
51800;SDS011;37855;53.204;6.568;2023-02-23T18:01:41;10.68;;;2.72;;
51800;SDS011;37855;53.204;6.568;2023-02-23T18:04:17;11.47;;;2.60;;
51800;SDS011;37855;53.204;6.568;2023-02-23T18:06:45;13.63;;;2.70;;
51800;SDS011;37855;53.204;6.568;2023-02-23T18:09:20;15.32;;;3.08;;
51800;SDS011;37855;53.204;6.568;2023-02-23T18:11:48;14.65;;;2.88;;
51800;SDS011;37855;53.204;6.568;2023-02-23T18:14:36;18.80;;;3.20;;
51800;SDS011;37855;53.204;6.568;2023-02-23T18:17:43;12.07;;;2.72;;
51800;SDS011;37855;53.204;6.568;2023-02-23T18:20:09;16.00;;;2.83;;
51800;SDS011;37855;53.204;6.568;2023-02-23T18:22:39;10.32;;;2.72;;
51800;SDS011;37855;53.204;6.568;2023-02-23T18:25:22;13.98;;;2.50;;
51800;SDS011;37855;53.204;6.568;2023-02-23T18:27:54;18.17;;;3.20;;
51800;SDS011;37855;53.204;6.568;2023-02-23T18:30:24;13.95;;;2.20;;
51800;SDS011;37855;53.204;6.568;2023-02-23T18:33:01;18.17;;;3.83;;
51800;SDS011;37855;53.204;6.568;2023-02-23T18:35:32;13.63;;;2.50;;
51800;SDS011;37855;53.204;6.568;2023-02-23T18:38:00;16.58;;;2.58;;
51800;SDS011;37855;53.204;6.568;2023-02-23T18:40:36;9.63;;;2.30;;